createdAt,value
2018-07-23T00:00:40.128Z,99.99
2018-07-23T00:01:40.165Z,99.99
2018-07-23T00:02:40.198Z,99.99
2018-07-23T00:03:40.232Z,99.99
2018-07-23T00:04:40.266Z,99.99
2018-07-23T00:05:40.301Z,99.99
2018-07-23T00:06:40.335Z,99.99
2018-07-23T00:07:40.370Z,99.99
2018-07-23T00:08:40.404Z,99.99
2018-07-23T00:09:40.441Z,99.99
2018-07-23T00:10:40.475Z,99.99
2018-07-23T00:11:40.510Z,99.99
2018-07-23T00:12:40.554Z,99.99
2018-07-23T00:13:40.578Z,99.99
2018-07-23T00:14:40.615Z,99.99
2018-07-23T00:15:40.649Z,99.99
2018-07-23T00:16:40.680Z,99.99
2018-07-23T00:17:40.717Z,99.99
2018-07-23T00:18:40.750Z,99.99
2018-07-23T00:19:40.785Z,99.99
2018-07-23T00:20:40.820Z,99.99
2018-07-23T00:21:40.854Z,99.99
2018-07-23T00:22:40.894Z,99.99
2018-07-23T00:23:40.924Z,99.99
2018-07-23T00:24:40.957Z,99.99
2018-07-23T00:25:40.993Z,99.99
2018-07-23T00:26:41.026Z,99.99
2018-07-23T00:27:41.062Z,99.99
2018-07-23T00:28:41.094Z,99.99
2018-07-23T00:29:41.130Z,99.99
2018-07-23T00:30:41.164Z,99.99
2018-07-23T00:31:41.203Z,99.99
2018-07-23T00:32:41.233Z,99.99
2018-07-23T00:33:41.272Z,99.99
2018-07-23T00:34:41.302Z,99.99
2018-07-23T00:35:41.341Z,99.99
2018-07-23T00:36:41.371Z,99.99
2018-07-23T00:37:41.405Z,99.99
2018-07-23T00:38:41.440Z,99.99
2018-07-23T00:39:41.474Z,99.99
2018-07-23T00:40:41.508Z,99.99
2018-07-23T00:41:41.544Z,99.99
2018-07-23T00:42:41.579Z,99.99
2018-07-23T00:43:41.613Z,99.99
2018-07-23T00:44:41.647Z,99.99
2018-07-23T00:45:41.681Z,99.99
2018-07-23T00:46:41.716Z,99.99
2018-07-23T00:47:41.750Z,99.99
2018-07-23T00:48:41.784Z,99.99
2018-07-23T00:49:41.817Z,99.99
2018-07-23T00:50:41.853Z,99.99
2018-07-23T00:51:41.888Z,99.99
2018-07-23T00:52:41.923Z,99.99
2018-07-23T00:53:41.956Z,99.99
2018-07-23T00:54:41.992Z,99.99
2018-07-23T00:55:42.027Z,99.99
2018-07-23T00:56:42.059Z,99.99
2018-07-23T00:57:42.093Z,99.99
2018-07-23T00:58:42.128Z,99.99
2018-07-23T00:59:42.163Z,99.99
2018-07-23T01:00:42.196Z,99.99
2018-07-23T01:01:42.231Z,99.99
2018-07-23T01:02:42.265Z,99.99
2018-07-23T01:03:42.301Z,99.99
2018-07-23T01:04:42.334Z,99.99
2018-07-23T01:05:42.368Z,99.99
2018-07-23T01:06:42.402Z,99.99
2018-07-23T01:07:42.436Z,99.99
2018-07-23T01:08:42.471Z,99.99
2018-07-23T01:09:42.508Z,99.99
2018-07-23T01:10:42.539Z,99.99
2018-07-23T01:11:42.575Z,99.99
2018-07-23T01:12:42.612Z,99.99
2018-07-23T01:13:42.643Z,99.99
2018-07-23T01:14:42.676Z,99.99
2018-07-23T01:15:42.712Z,99.99
2018-07-23T01:16:42.746Z,99.99
2018-07-23T01:17:42.780Z,99.99
2018-07-23T01:18:42.816Z,99.99
2018-07-23T01:19:42.849Z,99.99
2018-07-23T01:20:42.886Z,99.99
2018-07-23T01:21:42.917Z,99.99
2018-07-23T01:22:42.952Z,99.99
2018-07-23T01:23:42.986Z,99.99
2018-07-23T01:24:43.020Z,99.99
2018-07-23T01:25:43.055Z,99.99
2018-07-23T01:26:43.089Z,99.99
2018-07-23T01:27:43.125Z,99.99
2018-07-23T01:28:43.157Z,99.99
2018-07-23T01:29:43.190Z,99.99
2018-07-23T01:30:43.228Z,99.99
2018-07-23T01:31:43.261Z,99.99
2018-07-23T01:32:43.293Z,99.99
2018-07-23T01:33:43.327Z,99.99
2018-07-23T01:34:43.362Z,99.99
2018-07-23T01:35:43.397Z,99.99
2018-07-23T01:36:43.430Z,99.99
2018-07-23T01:37:43.466Z,99.99
2018-07-23T01:38:43.498Z,99.99
2018-07-23T01:39:43.534Z,99.99
2018-07-23T01:40:43.567Z,99.99
2018-07-23T01:41:43.601Z,99.99
2018-07-23T01:42:43.635Z,99.99
2018-07-23T01:43:43.670Z,99.99
2018-07-23T01:44:43.702Z,99.99
2018-07-23T01:45:43.738Z,99.99
2018-07-23T01:46:43.773Z,99.99
2018-07-23T01:47:43.807Z,99.99
2018-07-23T01:48:43.843Z,99.99
2018-07-23T01:49:43.880Z,99.99
2018-07-23T01:50:43.909Z,99.99
2018-07-23T01:51:43.944Z,99.99
2018-07-23T01:52:43.977Z,99.99
2018-07-23T01:53:44.011Z,99.99
2018-07-23T01:54:44.045Z,99.99
2018-07-23T01:55:44.079Z,99.99
2018-07-23T01:56:44.116Z,99.99
2018-07-23T01:57:44.147Z,99.99
2018-07-23T01:58:44.182Z,99.99
2018-07-23T01:59:44.216Z,99.99
2018-07-23T02:00:44.249Z,99.99
2018-07-23T02:01:44.284Z,99.99
2018-07-23T02:02:44.318Z,99.99
2018-07-23T02:03:44.354Z,99.99
2018-07-23T02:04:44.386Z,99.99
2018-07-23T02:05:44.420Z,99.99
2018-07-23T02:06:44.455Z,99.99
2018-07-23T02:07:44.489Z,99.99
2018-07-23T02:08:44.522Z,99.99
2018-07-23T02:09:44.556Z,99.99
2018-07-23T02:10:44.592Z,99.99
2018-07-23T02:11:44.625Z,99.99
2018-07-23T02:12:44.658Z,99.99
2018-07-23T02:13:44.693Z,99.99
2018-07-23T02:14:44.726Z,99.99
2018-07-23T02:15:44.761Z,99.99
2018-07-23T02:16:44.794Z,99.99
2018-07-23T02:17:44.828Z,99.99
2018-07-23T02:18:44.865Z,99.99
2018-07-23T02:19:44.901Z,99.99
2018-07-23T02:20:44.931Z,99.99
2018-07-23T02:21:44.964Z,99.99
2018-07-23T02:22:44.999Z,99.99
2018-07-23T02:23:45.035Z,99.99
2018-07-23T02:24:45.065Z,99.99
2018-07-23T02:25:45.101Z,99.99
2018-07-23T02:26:45.151Z,99.99
2018-07-23T02:27:45.170Z,99.99
2018-07-23T02:28:45.203Z,99.99
2018-07-23T02:29:45.237Z,99.99
2018-07-23T02:30:45.271Z,99.99
2018-07-23T02:31:45.306Z,99.99
2018-07-23T02:32:45.339Z,99.99
2018-07-23T02:33:45.373Z,99.99
2018-07-23T02:34:45.406Z,99.99
2018-07-23T02:35:45.441Z,99.99
2018-07-23T02:36:45.474Z,99.99
2018-07-23T02:37:45.508Z,99.99
2018-07-23T02:38:45.548Z,99.99
2018-07-23T02:39:45.576Z,99.99
2018-07-23T02:40:45.611Z,99.99
2018-07-23T02:41:45.645Z,99.99
2018-07-23T02:42:45.684Z,99.99
2018-07-23T02:43:45.713Z,99.99
2018-07-23T02:44:45.747Z,99.99
2018-07-23T02:45:45.781Z,99.99
2018-07-23T02:46:45.814Z,99.99
2018-07-23T02:47:45.849Z,99.99
2018-07-23T02:48:45.883Z,99.99
2018-07-23T02:49:45.917Z,99.99
2018-07-23T02:50:45.951Z,99.99
2018-07-23T02:51:45.985Z,99.99
2018-07-23T02:52:46.019Z,99.99
2018-07-23T02:53:46.053Z,99.99
2018-07-23T02:54:46.087Z,99.99
2018-07-23T02:55:46.121Z,99.99
2018-07-23T02:56:46.153Z,99.99
2018-07-23T02:57:46.199Z,99.99
2018-07-23T02:58:46.223Z,99.99
2018-07-23T02:59:46.383Z,99.99
2018-07-23T03:00:46.290Z,99.99
2018-07-23T03:01:46.327Z,99.99
2018-07-23T03:02:46.359Z,99.99
2018-07-23T03:03:46.397Z,99.99
2018-07-23T03:04:46.426Z,99.99
2018-07-23T03:05:46.462Z,99.99
2018-07-23T03:06:46.493Z,99.99
2018-07-23T03:07:46.530Z,99.99
2018-07-23T03:08:46.560Z,99.99
2018-07-23T03:09:46.600Z,99.99
2018-07-23T03:10:46.629Z,99.99
2018-07-23T03:11:46.662Z,99.99
2018-07-23T03:12:46.696Z,99.99
2018-07-23T03:13:46.730Z,99.99
2018-07-23T03:14:46.764Z,99.99
2018-07-23T03:15:46.798Z,99.99
2018-07-23T03:16:46.838Z,99.99
2018-07-23T03:17:46.866Z,99.99
2018-07-23T03:18:46.899Z,99.99
2018-07-23T03:19:46.932Z,99.99
2018-07-23T03:20:46.967Z,99.99
2018-07-23T03:21:47.062Z,99.99
2018-07-23T03:22:47.035Z,99.99
2018-07-23T03:23:47.069Z,99.99
2018-07-23T03:24:47.118Z,99.99
2018-07-23T03:25:47.140Z,99.99
2018-07-23T03:26:47.169Z,99.99
2018-07-23T03:27:47.205Z,99.99
2018-07-23T03:28:47.237Z,99.99
2018-07-23T03:29:47.270Z,99.99
2018-07-23T03:30:47.307Z,99.99
2018-07-23T03:31:47.340Z,99.99
2018-07-23T03:32:47.372Z,99.99
2018-07-23T03:33:47.406Z,99.99
2018-07-23T03:34:47.440Z,99.99
2018-07-23T03:35:47.474Z,99.99
2018-07-23T03:36:47.507Z,99.99
2018-07-23T03:37:47.543Z,99.99
2018-07-23T03:38:47.580Z,99.99
2018-07-23T03:39:47.609Z,99.99
2018-07-23T03:40:47.643Z,99.99
2018-07-23T03:41:47.676Z,99.99
2018-07-23T03:42:48.316Z,99.99
2018-07-23T03:43:47.745Z,99.99
2018-07-23T03:44:47.777Z,99.99
2018-07-23T03:45:47.812Z,99.99
2018-07-23T03:46:47.846Z,99.99
2018-07-23T03:47:47.879Z,99.99
2018-07-23T03:48:47.914Z,99.99
2018-07-23T03:49:47.947Z,99.99
2018-07-23T03:50:47.981Z,99.99
2018-07-23T03:51:48.015Z,99.99
2018-07-23T03:52:48.047Z,99.99
2018-07-23T03:53:48.082Z,99.99
2018-07-23T03:54:48.116Z,99.99
2018-07-23T03:55:48.152Z,99.99
2018-07-23T03:56:48.182Z,99.99
2018-07-23T03:57:48.217Z,99.99
2018-07-23T03:58:48.252Z,99.99
2018-07-23T03:59:48.284Z,99.99
2018-07-23T04:00:48.317Z,99.99
2018-07-23T04:01:48.354Z,99.99
2018-07-23T04:02:48.385Z,99.99
2018-07-23T04:03:48.420Z,99.99
2018-07-23T04:04:48.453Z,99.99
2018-07-23T04:05:48.487Z,99.99
2018-07-23T04:06:48.520Z,99.99
2018-07-23T04:07:48.557Z,99.99
2018-07-23T04:08:48.588Z,99.99
2018-07-23T04:09:48.621Z,99.99
2018-07-23T04:10:48.670Z,99.99
2018-07-23T04:11:48.689Z,99.99
2018-07-23T04:12:48.721Z,99.99
2018-07-23T04:13:48.757Z,99.99
2018-07-23T04:14:48.794Z,99.99
2018-07-23T04:15:48.825Z,99.99
2018-07-23T04:16:48.857Z,99.99
2018-07-23T04:17:48.891Z,99.99
2018-07-23T04:18:48.925Z,99.99
2018-07-23T04:19:48.959Z,99.99
2018-07-23T04:20:48.992Z,99.99
2018-07-23T04:21:49.027Z,99.99
2018-07-23T04:22:49.060Z,99.99
2018-07-23T04:23:49.094Z,99.99
2018-07-23T04:24:49.127Z,99.99
2018-07-23T04:25:49.160Z,99.99
2018-07-23T04:26:49.198Z,99.99
2018-07-23T04:27:49.228Z,99.99
2018-07-23T04:28:49.264Z,99.99
2018-07-23T04:29:49.295Z,99.99
2018-07-23T04:30:49.329Z,99.99
2018-07-23T04:31:49.363Z,99.99
2018-07-23T04:32:49.396Z,99.99
2018-07-23T04:33:49.430Z,99.99
2018-07-23T04:34:49.464Z,99.99
2018-07-23T04:35:49.498Z,99.99
2018-07-23T04:36:49.531Z,99.99
2018-07-23T04:37:49.626Z,99.99
2018-07-23T04:38:49.598Z,99.99
2018-07-23T04:39:49.633Z,99.99
2018-07-23T04:40:49.666Z,99.99
2018-07-23T04:41:49.701Z,99.99
2018-07-23T04:42:49.736Z,99.99
2018-07-23T04:43:49.766Z,99.99
2018-07-23T04:44:49.804Z,99.99
2018-07-23T04:45:49.834Z,99.99
2018-07-23T04:46:49.869Z,99.99
2018-07-23T04:47:49.902Z,99.99
2018-07-23T04:48:49.934Z,99.99
2018-07-23T04:49:49.969Z,99.99
2018-07-23T04:50:50.007Z,99.99
2018-07-23T04:51:50.038Z,99.99
2018-07-23T04:52:50.070Z,99.99
2018-07-23T04:53:50.103Z,99.99
2018-07-23T04:54:50.138Z,99.99
2018-07-23T04:55:50.172Z,99.99
2018-07-23T04:56:50.285Z,99.99
2018-07-23T04:57:50.239Z,99.99
2018-07-23T04:58:50.272Z,99.99
2018-07-23T04:59:50.307Z,99.99
2018-07-23T05:00:50.340Z,99.99
2018-07-23T05:01:50.374Z,99.99
2018-07-23T05:02:50.408Z,99.99
2018-07-23T05:03:50.443Z,99.99
2018-07-23T05:04:50.477Z,99.99
2018-07-23T05:05:50.514Z,99.99
2018-07-23T05:06:50.543Z,99.99
2018-07-23T05:07:50.578Z,99.99
2018-07-23T05:08:50.609Z,99.99
2018-07-23T05:09:50.645Z,99.99
2018-07-23T05:10:50.679Z,99.99
2018-07-23T05:11:50.713Z,99.99
2018-07-23T05:12:50.746Z,99.99
2018-07-23T05:13:50.779Z,99.99
2018-07-23T05:14:50.814Z,99.99
2018-07-23T05:15:50.892Z,99.99
2018-07-23T05:16:50.885Z,99.99
2018-07-23T05:17:50.916Z,99.99
2018-07-23T05:18:50.953Z,99.99
2018-07-23T05:19:50.984Z,99.99
2018-07-23T05:20:51.018Z,99.99
2018-07-23T05:21:51.051Z,99.99
2018-07-23T05:22:51.088Z,99.99
2018-07-23T05:23:51.146Z,99.99
2018-07-23T05:24:51.157Z,99.99
2018-07-23T05:25:51.189Z,99.99
2018-07-23T05:26:51.222Z,99.99
2018-07-23T05:27:51.257Z,99.99
2018-07-23T05:28:51.290Z,99.99
2018-07-23T05:29:51.325Z,99.99
2018-07-23T05:30:51.358Z,99.99
2018-07-23T05:31:51.441Z,99.99
2018-07-23T05:32:51.426Z,99.99
2018-07-23T05:33:51.462Z,99.99
2018-07-23T05:34:51.496Z,99.99
2018-07-23T05:35:51.530Z,99.99
2018-07-23T05:36:51.563Z,99.99
2018-07-23T05:37:51.597Z,99.99
2018-07-23T05:38:51.634Z,99.99
2018-07-23T05:39:51.667Z,99.99
2018-07-23T05:40:51.700Z,99.99
2018-07-23T05:41:51.735Z,99.99
2018-07-23T05:42:51.770Z,99.99
2018-07-23T05:43:51.804Z,99.99
2018-07-23T05:44:51.839Z,99.99
2018-07-23T05:45:51.872Z,99.99
2018-07-23T05:46:51.911Z,99.99
2018-07-23T05:47:51.945Z,99.99
2018-07-23T05:48:51.977Z,99.99
2018-07-23T05:49:52.013Z,99.99
2018-07-23T05:50:52.045Z,99.99
2018-07-23T05:51:52.079Z,99.99
2018-07-23T05:52:52.118Z,99.99
2018-07-23T05:53:52.148Z,99.99
2018-07-23T05:54:52.183Z,99.99
2018-07-23T05:55:52.219Z,99.99
2018-07-23T05:56:52.252Z,99.99
2018-07-23T05:57:52.287Z,99.99
2018-07-23T05:58:52.373Z,99.99
2018-07-23T05:59:52.358Z,99.99
2018-07-23T06:00:52.396Z,99.99
2018-07-23T06:01:52.426Z,99.99
2018-07-23T06:02:52.461Z,99.99
2018-07-23T06:03:52.499Z,99.99
2018-07-23T06:04:52.535Z,99.99
2018-07-23T06:05:52.566Z,99.99
2018-07-23T06:06:52.693Z,99.99
2018-07-23T06:07:52.636Z,99.99
2018-07-23T06:08:52.670Z,99.99
2018-07-23T06:09:52.723Z,99.99
2018-07-23T06:10:52.740Z,99.99
2018-07-23T06:11:52.778Z,99.99
2018-07-23T06:12:52.813Z,99.99
2018-07-23T06:13:52.848Z,99.99
2018-07-23T06:14:52.882Z,99.99
2018-07-23T06:15:52.916Z,99.99
2018-07-23T06:16:52.952Z,99.99
2018-07-23T06:17:52.987Z,99.99
2018-07-23T06:18:53.022Z,99.99
2018-07-23T06:19:53.058Z,99.99
2018-07-23T06:20:53.092Z,99.99
2018-07-23T06:21:53.137Z,99.99
2018-07-23T06:22:53.165Z,99.99
2018-07-23T06:23:53.201Z,99.99
2018-07-23T06:24:53.237Z,99.99
2018-07-23T06:25:53.274Z,99.99
2018-07-23T06:26:53.306Z,99.99
2018-07-23T06:27:53.343Z,99.99
2018-07-23T06:28:53.377Z,99.99
2018-07-23T06:29:53.412Z,99.99
2018-07-23T06:30:53.451Z,99.99
2018-07-23T06:31:53.485Z,99.99
2018-07-23T06:32:53.518Z,99.99
2018-07-23T06:33:53.618Z,99.99
2018-07-23T06:34:53.590Z,99.99
2018-07-23T06:35:53.626Z,99.99
2018-07-23T06:36:53.661Z,99.99
2018-07-23T06:37:53.697Z,99.99
2018-07-23T06:38:53.732Z,99.99
2018-07-23T06:39:53.769Z,99.99
2018-07-23T06:40:53.804Z,99.99
2018-07-23T06:41:53.839Z,99.99
2018-07-23T06:42:53.878Z,99.99
2018-07-23T06:43:53.911Z,99.99
2018-07-23T06:44:53.948Z,99.99
2018-07-23T06:45:53.987Z,99.99
2018-07-23T06:46:54.022Z,99.99
2018-07-23T06:47:54.057Z,99.99
2018-07-23T06:48:54.092Z,99.99
2018-07-23T06:49:54.127Z,99.99
2018-07-23T06:50:54.165Z,99.99
2018-07-23T06:51:54.201Z,99.99
2018-07-23T06:52:54.237Z,99.99
2018-07-23T06:53:54.306Z,99.99
2018-07-23T06:54:54.310Z,99.99
2018-07-23T06:55:54.346Z,99.99
2018-07-23T06:56:54.382Z,99.99
2018-07-23T06:57:54.420Z,99.99
2018-07-23T06:58:54.455Z,99.99
2018-07-23T06:59:54.492Z,99.99
2018-07-23T07:00:54.527Z,99.99
2018-07-23T07:01:54.564Z,99.99
2018-07-23T07:02:54.603Z,99.99
2018-07-23T07:03:54.639Z,99.99
2018-07-23T07:04:54.676Z,99.99
2018-07-23T07:05:54.712Z,99.99
2018-07-23T07:06:54.749Z,99.99
2018-07-23T07:07:54.785Z,99.99
2018-07-23T07:08:54.822Z,99.99
2018-07-23T07:09:54.860Z,99.99
2018-07-23T07:10:54.949Z,99.99
2018-07-23T07:11:54.934Z,99.99
2018-07-23T07:12:54.970Z,99.99
2018-07-23T07:13:55.009Z,99.99
2018-07-23T07:14:55.046Z,99.99
2018-07-23T07:15:55.082Z,99.99
2018-07-23T07:16:55.119Z,99.99
2018-07-23T07:17:55.156Z,99.99
2018-07-23T07:18:55.194Z,99.99
2018-07-23T07:19:55.251Z,99.99
2018-07-23T07:20:55.269Z,99.99
2018-07-23T07:21:55.306Z,99.99
2018-07-23T07:22:55.343Z,99.99
2018-07-23T07:23:55.381Z,99.99
2018-07-23T07:24:55.417Z,99.99
2018-07-23T07:25:55.455Z,99.99
2018-07-23T07:26:55.493Z,99.99
2018-07-23T07:27:55.531Z,99.99
2018-07-23T07:28:55.567Z,99.99
2018-07-23T07:29:55.606Z,99.99
2018-07-23T07:30:55.644Z,99.99
2018-07-23T07:31:55.682Z,99.99
2018-07-23T07:32:55.718Z,99.99
2018-07-23T07:33:55.757Z,99.99
2018-07-23T07:34:55.795Z,99.99
2018-07-23T07:35:55.832Z,99.99
2018-07-23T07:36:55.869Z,99.99
2018-07-23T07:37:55.914Z,99.99
2018-07-23T07:38:55.945Z,99.99
2018-07-23T07:39:55.983Z,99.99
2018-07-23T07:40:56.020Z,99.99
2018-07-23T07:41:56.059Z,99.99
2018-07-23T07:42:56.097Z,99.99
2018-07-23T07:43:56.134Z,99.99
2018-07-23T07:44:56.171Z,99.99
2018-07-23T07:45:56.208Z,99.99
2018-07-23T07:46:56.247Z,99.99
2018-07-23T07:47:56.286Z,99.99
2018-07-23T07:48:56.323Z,99.99
2018-07-23T07:52:52.330Z,99.99
2018-07-23T07:53:52.367Z,99.99
2018-07-23T07:54:52.404Z,99.99
2018-07-23T07:55:52.442Z,99.99
2018-07-23T07:56:52.485Z,99.99
2018-07-23T07:57:52.518Z,99.99
2018-07-23T07:58:52.606Z,99.99
2018-07-23T07:59:52.596Z,99.99
2018-07-23T08:00:52.633Z,99.99
2018-07-23T08:01:52.672Z,99.99
2018-07-23T08:02:52.710Z,99.99
2018-07-23T08:03:52.747Z,99.99
2018-07-23T08:04:53.114Z,99.99
2018-07-23T08:05:52.825Z,99.99
2018-07-23T08:06:52.863Z,99.99
2018-07-23T08:07:52.902Z,99.99
2018-07-23T08:08:52.940Z,99.99
2018-07-23T08:09:52.982Z,99.99
2018-07-23T08:11:53.056Z,99.99
2018-07-23T08:12:53.095Z,99.99
2018-07-23T08:13:53.134Z,99.99
2018-07-23T08:14:53.176Z,99.99
2018-07-23T08:15:53.238Z,99.99
2018-07-23T08:16:53.249Z,99.74
2018-07-23T08:17:53.300Z,99.89
2018-07-23T08:18:53.326Z,99.89
2018-07-23T08:19:53.365Z,99.99
2018-07-23T08:20:53.406Z,99.94
2018-07-23T08:21:53.443Z,99.94
2018-07-23T08:22:53.481Z,98.05
2018-07-23T08:23:53.541Z,96.22
2018-07-23T08:24:53.560Z,95.73
2018-07-23T08:25:53.600Z,96.12
2018-07-23T08:26:53.669Z,94.76
2018-07-23T08:27:53.733Z,93.55
2018-07-23T08:28:53.716Z,94.37
2018-07-23T08:29:53.756Z,94.96
2018-07-23T08:30:53.794Z,94.04
2018-07-23T08:31:53.913Z,94.71
2018-07-23T08:32:53.873Z,93.26
2018-07-23T08:33:54.442Z,93.51
2018-07-23T08:34:53.951Z,96.22
2018-07-23T08:35:53.992Z,97.08
2018-07-23T08:36:54.056Z,95.54
2018-07-23T08:37:54.071Z,94.04
2018-07-23T08:38:54.110Z,94.62
2018-07-23T08:39:54.148Z,92.92
2018-07-23T08:40:54.246Z,92.33
2018-07-23T08:41:54.229Z,90.73
2018-07-23T08:42:54.268Z,89.86
2018-07-23T08:43:54.306Z,90.73
2018-07-23T08:44:54.400Z,91.85
2018-07-23T08:45:54.387Z,92.14
2018-07-23T08:46:54.447Z,91.75
2018-07-23T08:47:54.692Z,90.78
2018-07-23T08:48:55.042Z,91.17
2018-07-23T08:49:54.771Z,92.24
2018-07-23T08:50:54.609Z,91.12
2018-07-23T08:52:54.692Z,89.42
2018-07-23T08:53:54.706Z,91.99
2018-07-23T08:54:54.970Z,88.60
2018-07-23T08:55:54.787Z,88.65
2018-07-23T08:56:55.031Z,89.13
2018-07-23T08:57:54.868Z,87.96
2018-07-23T08:58:54.928Z,89.03
2018-07-23T09:02:14.702Z,90.78
2018-07-23T09:02:55.071Z,89.03
2018-07-23T09:03:55.109Z,87.13
2018-07-23T09:04:55.150Z,85.78
2018-07-23T09:05:55.190Z,85.88
2018-07-23T09:06:55.230Z,85.83
2018-07-23T09:07:55.271Z,86.71
2018-07-23T09:08:55.312Z,88.41
2018-07-23T09:09:55.352Z,89.18
2018-07-23T09:10:55.393Z,88.12
2018-07-23T09:11:55.433Z,87.38
2018-07-23T09:12:55.475Z,86.12
2018-07-23T09:13:55.515Z,87.33
2018-07-23T09:14:55.554Z,85.10
2018-07-23T09:15:55.595Z,85.14
2018-07-23T09:16:55.636Z,84.56
2018-07-23T09:17:55.677Z,83.04
2018-07-23T09:18:55.716Z,81.92
2018-07-23T09:19:55.757Z,81.38
2018-07-23T09:20:55.798Z,79.96
2018-07-23T09:21:55.840Z,79.08
2018-07-23T09:22:55.880Z,78.53
2018-07-23T09:23:55.979Z,79.12
2018-07-23T09:24:55.961Z,79.12
2018-07-23T09:25:56.003Z,78.25
2018-07-23T09:26:56.091Z,77.76
2018-07-23T09:27:56.085Z,76.40
2018-07-23T09:28:56.329Z,76.53
2018-07-23T09:29:56.167Z,76.24
2018-07-23T09:30:56.245Z,76.24
2018-07-23T09:31:56.250Z,76.43
2018-07-23T09:32:56.292Z,76.73
2018-07-23T09:33:56.664Z,76.24
2018-07-23T09:34:56.375Z,76.20
2018-07-23T09:35:56.417Z,78.89
2018-07-23T09:36:56.458Z,78.11
2018-07-23T09:37:56.503Z,77.82
2018-07-23T09:38:56.542Z,78.59
2018-07-23T09:39:56.584Z,78.85
2018-07-23T09:40:56.626Z,77.33
2018-07-23T09:41:56.669Z,77.23
2018-07-23T09:42:56.711Z,76.68
2018-07-23T09:43:56.752Z,76.88
2018-07-23T09:44:56.794Z,78.34
2018-07-23T09:45:56.839Z,77.31
2018-07-23T09:46:56.878Z,75.89
2018-07-23T09:47:56.921Z,73.68
2018-07-23T09:48:56.963Z,73.29
2018-07-23T09:49:57.006Z,73.91
2018-07-23T09:50:57.049Z,73.72
2018-07-23T09:51:57.094Z,73.52
2018-07-23T09:52:57.133Z,72.84
2018-07-23T09:53:57.175Z,72.41
2018-07-23T09:54:57.217Z,71.83
2018-07-23T09:55:57.259Z,71.22
2018-07-23T09:56:57.303Z,70.53
2018-07-23T09:57:57.346Z,70.73
2018-07-23T09:58:57.386Z,70.04
2018-07-23T09:59:57.432Z,70.14
2018-07-23T10:00:57.482Z,70.28
2018-07-23T10:01:57.516Z,70.08
2018-07-23T10:02:57.596Z,69.53
2018-07-23T10:03:57.601Z,70.31
2018-07-23T10:04:57.973Z,69.63
2018-07-23T10:06:57.729Z,70.18
2018-07-23T10:07:57.773Z,69.04
2018-07-23T10:08:57.816Z,68.65
2018-07-23T10:09:57.859Z,69.40
2018-07-23T10:10:57.933Z,69.95
2018-07-23T10:11:57.948Z,70.73
2018-07-23T10:12:57.988Z,71.57
2018-07-23T10:13:58.038Z,72.61
2018-07-23T10:14:58.074Z,72.90
2018-07-23T10:15:58.117Z,72.51
2018-07-23T10:16:58.161Z,71.67
2018-07-23T10:17:58.204Z,74.13
2018-07-23T10:18:58.247Z,74.72
2018-07-23T10:19:58.290Z,75.04
2018-07-23T10:20:58.335Z,73.49
2018-07-23T10:21:58.378Z,71.47
2018-07-23T10:22:58.420Z,71.92
2018-07-23T10:23:58.464Z,72.96
2018-07-23T10:24:58.508Z,73.29
2018-07-23T10:25:58.754Z,72.16
2018-07-23T10:26:58.921Z,72.68
2018-07-23T10:27:58.639Z,73.66
2018-07-23T10:28:58.682Z,70.37
2018-07-23T10:29:58.728Z,69.53
2018-07-23T10:30:58.771Z,68.88
2018-07-23T10:31:58.815Z,65.62
2018-07-23T10:33:58.904Z,62.25
2018-07-23T10:34:58.953Z,60.42
2018-07-23T10:35:58.994Z,58.64
2018-07-23T10:36:59.042Z,56.37
2018-07-23T10:37:59.088Z,54.89
2018-07-23T10:38:59.134Z,52.87
2018-07-23T10:39:59.181Z,48.83
2018-07-23T10:40:59.228Z,47.01
2018-07-23T10:41:59.278Z,45.56
2018-07-23T10:42:59.325Z,45.48
2018-07-23T10:43:59.375Z,44.34
2018-07-23T10:44:59.444Z,42.85
2018-07-23T10:45:59.473Z,42.97
2018-07-23T10:46:59.522Z,43.27
2018-07-23T10:47:59.571Z,44.91
2018-07-23T10:48:59.624Z,45.30
2018-07-23T10:49:59.673Z,42.99
2018-07-23T10:50:59.776Z,42.64
2018-07-23T10:51:59.774Z,46.06
2018-07-23T10:52:59.823Z,46.55
2018-07-23T10:53:59.878Z,49.04
2018-07-23T10:54:59.926Z,49.01
2018-07-23T10:55:59.976Z,45.87
2018-07-23T10:57:00.028Z,44.14
2018-07-23T10:58:00.078Z,42.58
2018-07-23T10:59:00.129Z,41.85
2018-07-23T11:00:00.182Z,42.92
2018-07-23T11:01:00.233Z,42.32
2018-07-23T11:02:00.284Z,41.67
2018-07-23T11:03:00.335Z,40.25
2018-07-23T11:04:00.388Z,39.73
2018-07-23T11:05:00.439Z,38.76
2018-07-23T11:06:00.492Z,37.45
2018-07-23T11:07:00.542Z,37.23
2018-07-23T11:08:00.595Z,35.57
2018-07-23T11:09:00.647Z,35.47
2018-07-23T11:10:00.726Z,35.27
2018-07-23T11:11:00.753Z,35.26
2018-07-23T11:12:00.805Z,35.75
2018-07-23T11:13:00.858Z,35.46
2018-07-23T11:14:00.913Z,34.30
2018-07-23T11:15:00.965Z,34.46
2018-07-23T11:16:01.019Z,34.27
2018-07-23T11:17:01.072Z,35.32
2018-07-23T11:18:01.127Z,35.16
2018-07-23T11:19:01.183Z,35.57
2018-07-23T11:20:01.235Z,35.21
2018-07-23T11:21:01.287Z,38.45
2018-07-23T11:22:01.341Z,40.64
2018-07-23T11:23:01.394Z,43.52
2018-07-23T11:24:01.485Z,44.68
2018-07-23T11:25:37.951Z,45.29
2018-07-23T11:26:01.555Z,44.34
2018-07-23T11:27:01.608Z,44.51
2018-07-23T11:28:01.661Z,43.17
2018-07-23T11:29:01.714Z,42.16
2018-07-23T11:30:01.768Z,43.13
2018-07-23T11:31:01.819Z,43.07
2018-07-23T11:32:01.929Z,41.25
2018-07-23T11:33:01.924Z,42.52
2018-07-23T11:34:01.975Z,40.34
2018-07-23T11:35:02.028Z,42.03
2018-07-23T11:36:02.081Z,44.18
2018-07-23T11:37:02.137Z,43.51
2018-07-23T11:38:02.186Z,48.54
2018-07-23T11:39:02.239Z,54.90
2018-07-23T11:40:02.290Z,56.01
2018-07-23T11:41:02.343Z,55.40
2018-07-23T11:42:02.394Z,53.44
2018-07-23T11:43:02.447Z,51.20
2018-07-23T11:44:02.497Z,47.65
2018-07-23T11:45:02.549Z,46.07
2018-07-23T11:46:02.601Z,46.96
2018-07-23T11:47:02.681Z,43.98
2018-07-23T11:48:02.704Z,42.01
2018-07-23T11:49:02.759Z,43.28
2018-07-23T11:50:02.808Z,41.41
2018-07-23T11:51:02.859Z,42.35
2018-07-23T11:52:02.911Z,42.17
2018-07-23T11:53:02.963Z,41.44
2018-07-23T11:54:03.018Z,41.79
2018-07-23T11:55:03.069Z,45.57
2018-07-23T11:56:03.125Z,44.75
2018-07-23T11:57:03.298Z,44.46
2018-07-23T11:58:03.232Z,43.66
2018-07-23T11:59:03.282Z,42.43
2018-07-23T12:00:03.338Z,45.32
2018-07-23T12:01:03.389Z,42.62
2018-07-23T12:02:03.442Z,43.12
2018-07-23T12:03:03.495Z,42.32
2018-07-23T12:04:03.548Z,41.44
2018-07-23T12:05:03.603Z,43.65
2018-07-23T12:06:03.655Z,42.50
2018-07-23T12:07:03.708Z,42.66
2018-07-23T12:08:03.762Z,44.65
2018-07-23T12:09:03.813Z,47.03
2018-07-23T12:10:03.864Z,47.92
2018-07-23T12:11:03.917Z,49.53
2018-07-23T12:12:03.969Z,51.25
2018-07-23T12:13:04.021Z,52.37
2018-07-23T12:15:04.121Z,54.87
2018-07-23T12:16:04.192Z,55.29
2018-07-23T12:19:04.324Z,49.26
2018-07-23T12:20:04.401Z,50.98
2018-07-23T12:23:05.352Z,48.86
2018-07-23T12:24:04.570Z,52.57
2018-07-23T12:25:05.046Z,53.53
2018-07-23T12:26:04.726Z,52.47
2018-07-23T12:27:04.717Z,52.80
2018-07-23T12:28:04.767Z,51.12
2018-07-23T12:29:04.815Z,47.88
2018-07-23T12:30:04.865Z,46.26
2018-07-23T12:31:04.912Z,44.75
2018-07-23T12:32:04.962Z,42.90
2018-07-23T12:33:05.011Z,42.43
2018-07-23T12:34:05.090Z,43.31
2018-07-23T12:35:05.110Z,42.30
2018-07-23T12:36:05.159Z,42.92
2018-07-23T12:37:05.234Z,42.43
2018-07-23T12:38:05.484Z,41.20
2018-07-23T12:39:05.310Z,41.53
2018-07-23T12:40:05.425Z,41.99
2018-07-23T12:41:05.436Z,42.32
2018-07-23T12:42:06.679Z,42.13
2018-07-23T12:43:05.515Z,43.19
2018-07-23T12:44:05.566Z,41.93
2018-07-23T12:45:05.618Z,42.13
2018-07-23T12:46:05.670Z,41.18
2018-07-23T12:47:05.744Z,40.84
2018-07-23T12:48:05.773Z,42.46
2018-07-23T12:49:05.825Z,41.83
2018-07-23T12:50:05.878Z,40.20
2018-07-23T12:51:05.932Z,40.42
2018-07-23T12:52:05.982Z,39.69
2018-07-23T12:53:06.033Z,39.77
2018-07-23T12:54:06.086Z,38.76
2018-07-23T12:55:06.142Z,41.36
2018-07-23T12:56:06.191Z,43.96
2018-07-23T12:57:06.244Z,43.51
2018-07-23T12:58:06.296Z,42.08
2018-07-23T12:59:06.346Z,41.55
2018-07-23T13:00:06.398Z,40.68
2018-07-23T13:01:06.451Z,42.21
2018-07-23T13:02:06.509Z,43.39
2018-07-23T13:03:06.553Z,41.85
2018-07-23T13:04:06.606Z,41.10
2018-07-23T13:05:06.658Z,40.98
2018-07-23T13:06:06.712Z,42.01
2018-07-23T13:07:06.763Z,41.55